createdAt,value
2022-09-23T00:03:37.620Z,7.50
2022-09-23T00:08:42.932Z,7.40
2022-09-23T00:13:50.403Z,7.38
2022-09-23T00:18:54.679Z,7.58
2022-09-23T00:23:58.750Z,7.58
2022-09-23T00:29:02.740Z,7.40
2022-09-23T00:34:06.764Z,7.50
2022-09-23T00:39:10.905Z,7.70
2022-09-23T00:44:47.487Z,7.60
2022-09-23T00:50:23.695Z,7.50
2022-09-23T00:55:44.346Z,7.30
2022-09-23T01:00:48.835Z,7.42
2022-09-23T01:05:53.641Z,7.60
2022-09-23T01:11:01.609Z,7.70
2022-09-23T01:16:13.844Z,7.50
2022-09-23T01:21:57.791Z,7.40
2022-09-23T01:27:25.574Z,7.50
2022-09-23T01:32:56.640Z,7.60
2022-09-23T01:38:08.660Z,7.50
2022-09-23T01:43:36.027Z,7.30
2022-09-23T01:48:55.311Z,7.36
2022-09-23T01:54:16.555Z,7.50
2022-09-23T01:59:38.499Z,7.60
2022-09-23T02:05:18.876Z,7.50
2022-09-23T02:10:44.681Z,7.30
2022-09-23T02:15:57.323Z,7.30
2022-09-23T02:21:07.718Z,7.30
2022-09-23T02:26:31.424Z,7.30
2022-09-23T02:32:02.214Z,7.10
2022-09-23T02:37:39.686Z,6.90
2022-09-23T02:43:13.619Z,6.98
2022-09-23T02:48:25.024Z,7.10
2022-09-23T02:53:34.472Z,7.00
2022-09-23T02:58:38.042Z,6.80
2022-09-23T03:03:50.331Z,6.60
2022-09-23T03:09:13.908Z,6.60
2022-09-23T03:14:45.279Z,6.70
2022-09-23T03:20:04.997Z,6.80
2022-09-23T03:25:17.859Z,6.70
2022-09-23T03:30:22.197Z,6.50
2022-09-23T03:35:32.157Z,6.50
2022-09-23T03:40:43.856Z,6.68
2022-09-23T03:45:48.539Z,6.70
2022-09-23T03:50:55.050Z,6.70
2022-09-23T03:55:58.974Z,6.60
2022-09-23T04:01:02.978Z,6.40
2022-09-23T04:06:07.444Z,6.40
2022-09-23T04:11:12.094Z,6.50
2022-09-23T04:16:16.268Z,6.50
2022-09-23T04:21:20.249Z,6.50
2022-09-23T04:26:23.983Z,6.40
2022-09-23T04:31:29.240Z,6.20
2022-09-23T04:36:33.364Z,6.30
2022-09-23T04:41:40.288Z,6.40
2022-09-23T04:46:48.530Z,6.50
2022-09-23T04:51:52.923Z,6.60
2022-09-23T04:56:59.304Z,6.70
2022-09-23T05:02:03.192Z,6.70
2022-09-23T05:07:06.854Z,6.62
2022-09-23T05:12:10.885Z,6.78
2022-09-23T05:17:15.064Z,6.90
2022-09-23T05:22:18.736Z,7.04
2022-09-23T05:27:22.769Z,7.10
2022-09-23T05:32:26.894Z,6.90
2022-09-23T05:37:31.958Z,6.80
2022-09-23T05:42:36.186Z,7.00
2022-09-23T05:47:40.423Z,7.20
2022-09-23T05:52:44.342Z,7.40
2022-09-23T05:57:48.387Z,7.50
2022-09-23T06:02:52.444Z,7.50
2022-09-23T06:07:57.304Z,7.60
2022-09-23T06:13:01.473Z,7.90
2022-09-23T06:18:06.937Z,8.60
2022-09-23T06:23:12.115Z,9.08
2022-09-23T06:28:15.971Z,9.30
2022-09-23T06:33:29.661Z,9.50
2022-09-23T06:38:45.223Z,9.30
2022-09-23T06:43:49.414Z,9.10
2022-09-23T06:48:53.235Z,9.40
2022-09-23T06:53:57.169Z,9.72
2022-09-23T06:59:00.884Z,10.44
2022-09-23T07:04:04.882Z,10.84
2022-09-23T07:09:10.130Z,11.28
2022-09-23T07:14:14.794Z,11.50
2022-09-23T07:19:18.707Z,11.78
2022-09-23T07:24:23.411Z,11.90
2022-09-23T07:29:27.059Z,12.40
2022-09-23T07:34:30.695Z,12.80
2022-09-23T07:39:34.343Z,13.22
2022-09-23T07:44:38.179Z,13.70
2022-09-23T07:49:42.306Z,13.90
2022-09-23T07:54:48.657Z,13.72
2022-09-23T07:59:52.716Z,13.76
2022-09-23T08:04:56.644Z,13.94
2022-09-23T08:10:01.474Z,14.38
2022-09-23T08:15:07.015Z,14.44
2022-09-23T08:20:31.966Z,14.70
2022-09-23T08:25:35.897Z,14.90
2022-09-23T08:30:40.697Z,14.80
2022-09-23T08:35:45.068Z,14.44
2022-09-23T08:40:50.721Z,14.30
2022-09-23T08:46:01.182Z,14.30
2022-09-23T08:51:11.865Z,14.20
2022-09-23T08:56:22.826Z,14.20
2022-09-23T09:01:48.098Z,14.30
2022-09-23T09:07:36.582Z,14.66
2022-09-23T09:12:47.488Z,15.10
2022-09-23T09:18:00.125Z,15.40
2022-09-23T09:23:23.578Z,15.50
2022-09-23T09:28:46.936Z,15.70
2022-09-23T09:34:12.586Z,15.50
2022-09-23T09:39:17.749Z,15.30
2022-09-23T09:44:42.672Z,15.48
2022-09-23T09:50:07.783Z,16.00
2022-09-23T09:55:14.680Z,16.70
2022-09-23T10:00:43.604Z,17.40
2022-09-23T10:05:47.298Z,18.24
2022-09-23T10:11:11.813Z,19.10
2022-09-23T10:16:16.221Z,19.62
2022-09-23T10:21:27.883Z,20.20
2022-09-23T10:26:41.732Z,20.16
2022-09-23T10:31:45.941Z,19.50
2022-09-23T10:37:34.622Z,19.10
2022-09-23T10:43:38.256Z,18.10
2022-09-23T10:49:38.197Z,17.50
2022-09-23T10:55:24.514Z,17.10
2022-09-23T11:01:04.630Z,16.80
2022-09-23T11:07:07.970Z,16.60
2022-09-23T11:12:54.318Z,16.50
2022-09-23T11:18:36.058Z,16.50
2022-09-23T11:24:48.488Z,16.50
2022-09-23T11:30:20.532Z,16.30
2022-09-23T11:35:42.130Z,16.12
2022-09-23T11:40:55.108Z,15.80
2022-09-23T11:46:21.686Z,15.50
2022-09-23T11:51:29.949Z,15.20
2022-09-23T11:56:49.190Z,15.00
2022-09-23T12:02:17.917Z,14.60
2022-09-23T12:07:54.760Z,14.40
2022-09-23T12:13:19.498Z,14.20
2022-09-23T12:18:46.432Z,14.28
2022-09-23T12:24:05.847Z,14.40
2022-09-23T12:29:15.577Z,14.30
2022-09-23T12:34:52.486Z,14.30
2022-09-23T12:40:06.952Z,14.20
2022-09-23T12:45:36.157Z,14.30
2022-09-23T12:51:16.864Z,14.40
2022-09-23T12:56:43.937Z,14.60
2022-09-23T13:01:48.950Z,14.90
2022-09-23T13:07:45.864Z,15.30
2022-09-23T13:12:53.042Z,15.60
2022-09-23T13:18:21.873Z,15.80
2022-09-23T13:23:33.717Z,15.90
2022-09-23T13:28:54.244Z,15.90
2022-09-23T13:34:07.251Z,16.00
2022-09-23T13:39:25.226Z,16.28
2022-09-23T13:44:30.150Z,16.60
2022-09-23T13:49:37.428Z,16.94
2022-09-23T13:54:51.374Z,17.20
2022-09-23T13:59:55.423Z,17.40
2022-09-23T14:04:59.522Z,17.50
2022-09-23T14:10:07.203Z,17.60
2022-09-23T14:15:19.375Z,17.60
2022-09-23T14:20:23.834Z,17.50
2022-09-23T14:25:30.358Z,17.30
2022-09-23T14:30:35.602Z,16.90
2022-09-23T14:35:46.875Z,16.60
2022-09-23T14:41:18.272Z,16.30
2022-09-23T14:46:25.490Z,16.00
2022-09-23T14:51:36.401Z,15.80
2022-09-23T14:56:44.240Z,15.56
2022-09-23T15:01:48.313Z,15.30
2022-09-23T15:07:18.218Z,15.16
2022-09-23T15:12:23.093Z,14.90
2022-09-23T15:17:38.186Z,14.80
2022-09-23T15:22:48.958Z,14.70
2022-09-23T15:28:13.050Z,14.70
2022-09-23T15:33:18.484Z,14.80
2022-09-23T15:38:24.651Z,14.70
2022-09-23T15:43:35.032Z,14.50
2022-09-23T15:49:05.288Z,14.40
2022-09-23T15:54:15.939Z,14.20
2022-09-23T15:59:22.096Z,14.10
2022-09-23T16:04:26.556Z,14.00
2022-09-23T16:09:32.030Z,14.04
2022-09-23T16:14:36.041Z,14.20
2022-09-23T16:19:40.771Z,14.20
2022-09-23T16:24:47.862Z,14.00
2022-09-23T16:29:52.329Z,13.80
2022-09-23T16:34:59.022Z,13.70
2022-09-23T16:40:04.576Z,13.60
2022-09-23T16:45:10.443Z,13.70
2022-09-23T16:50:17.683Z,13.70
2022-09-23T16:55:22.400Z,13.60
2022-09-23T17:00:45.700Z,13.44
2022-09-23T17:05:50.972Z,13.30
2022-09-23T17:10:59.412Z,13.34
2022-09-23T17:16:03.656Z,13.46
2022-09-23T17:21:37.350Z,13.40
2022-09-23T17:26:42.753Z,13.30
2022-09-23T17:31:47.173Z,13.10
2022-09-23T17:36:51.163Z,13.10
2022-09-23T17:41:58.863Z,13.30
2022-09-23T17:47:04.129Z,13.30
2022-09-23T17:52:08.252Z,13.20
2022-09-23T17:57:13.524Z,13.00
2022-09-23T18:02:17.774Z,13.06
2022-09-23T18:07:25.663Z,13.10
2022-09-23T18:12:36.682Z,13.10
2022-09-23T18:17:42.153Z,13.00
2022-09-23T18:22:46.033Z,12.86
2022-09-23T18:27:49.914Z,12.90
2022-09-23T18:32:53.916Z,13.00
2022-09-23T18:37:59.681Z,12.90
2022-09-23T18:43:04.550Z,12.80
2022-09-23T18:48:28.844Z,12.80
2022-09-23T18:53:36.411Z,12.90
2022-09-23T18:58:53.035Z,12.80
2022-09-23T19:03:58.515Z,12.60
2022-09-23T19:09:03.905Z,12.60
2022-09-23T19:14:22.602Z,12.70
2022-09-23T19:19:30.652Z,12.70
2022-09-23T19:24:34.536Z,12.56
2022-09-23T19:29:41.254Z,12.40
2022-09-23T19:34:46.775Z,12.40
2022-09-23T19:39:51.113Z,12.50
2022-09-23T19:44:55.519Z,12.50
2022-09-23T19:49:59.304Z,12.40
2022-09-23T19:55:04.812Z,12.22
2022-09-23T20:00:10.287Z,12.30
2022-09-23T20:05:18.420Z,12.40
2022-09-23T20:10:24.239Z,12.50
2022-09-23T20:15:29.657Z,12.40
2022-09-23T20:20:33.906Z,12.30
2022-09-23T20:26:06.205Z,12.20
2022-09-23T20:31:16.858Z,12.24
2022-09-23T20:36:20.940Z,12.32
2022-09-23T20:41:27.009Z,12.30
2022-09-23T20:46:32.286Z,12.14
2022-09-23T20:51:37.710Z,12.16
2022-09-23T20:56:41.935Z,12.30
2022-09-23T21:01:46.183Z,12.26
2022-09-23T21:06:50.199Z,12.10
2022-09-23T21:11:55.446Z,12.00
2022-09-23T21:17:00.010Z,12.04
2022-09-23T21:22:04.431Z,12.10
2022-09-23T21:27:08.420Z,12.10
2022-09-23T21:32:12.190Z,12.00
2022-09-23T21:37:16.010Z,12.00
2022-09-23T21:42:21.989Z,12.10
2022-09-23T21:47:26.407Z,12.10
2022-09-23T21:52:30.551Z,12.00
2022-09-23T21:57:34.313Z,11.90
2022-09-23T22:02:40.312Z,11.92
2022-09-23T22:07:43.969Z,12.00
2022-09-23T22:12:50.469Z,12.00
2022-09-23T22:17:54.280Z,11.80
2022-09-23T22:22:57.908Z,11.70
2022-09-23T22:28:20.876Z,11.80
2022-09-23T22:33:24.598Z,11.80
2022-09-23T22:38:28.729Z,11.80
2022-09-23T22:43:34.091Z,11.66
2022-09-23T22:48:37.808Z,11.50
2022-09-23T22:53:41.742Z,11.50
2022-09-23T22:58:45.865Z,11.60
2022-09-23T23:03:54.170Z,11.50
2022-09-23T23:09:00.275Z,11.32
2022-09-23T23:14:04.636Z,11.10
2022-09-23T23:19:13.966Z,11.10
2022-09-23T23:24:24.753Z,11.20
2022-09-23T23:29:28.578Z,11.20
2022-09-23T23:34:32.812Z,11.10
2022-09-23T23:39:36.743Z,10.90
2022-09-23T23:44:40.759Z,10.90
2022-09-23T23:49:44.804Z,11.00
2022-09-23T23:54:48.825Z,10.90
2022-09-23T23:59:52.654Z,10.70
